sensor_id;sensor_type;location;lat;lon;timestamp;P1;durP1;ratioP1;P2;durP2;ratioP2
19173;SDS011;9719;49.322;8.536;2023-06-22T00:00:02;2.17;;;1.23;;
19173;SDS011;9719;49.322;8.536;2023-06-22T00:05:08;1.60;;;1.15;;
19173;SDS011;9719;49.322;8.536;2023-06-22T00:10:10;1.35;;;1.25;;
19173;SDS011;9719;49.322;8.536;2023-06-22T00:15:13;1.08;;;0.98;;
19173;SDS011;9719;49.322;8.536;2023-06-22T00:20:15;1.17;;;1.02;;
19173;SDS011;9719;49.322;8.536;2023-06-22T00:25:18;1.95;;;1.23;;
19173;SDS011;9719;49.322;8.536;2023-06-22T00:30:21;1.40;;;1.08;;
19173;SDS011;9719;49.322;8.536;2023-06-22T00:35:22;1.35;;;0.95;;
19173;SDS011;9719;49.322;8.536;2023-06-22T00:40:29;1.25;;;1.10;;
19173;SDS011;9719;49.322;8.536;2023-06-22T00:45:32;1.02;;;1.00;;
19173;SDS011;9719;49.322;8.536;2023-06-22T00:50:34;1.58;;;1.02;;
19173;SDS011;9719;49.322;8.536;2023-06-22T00:55:36;1.42;;;1.10;;
19173;SDS011;9719;49.322;8.536;2023-06-22T01:00:41;1.10;;;1.00;;
19173;SDS011;9719;49.322;8.536;2023-06-22T01:05:43;1.30;;;1.13;;
19173;SDS011;9719;49.322;8.536;2023-06-22T01:10:47;1.00;;;0.90;;
19173;SDS011;9719;49.322;8.536;2023-06-22T01:15:55;1.25;;;1.15;;
19173;SDS011;9719;49.322;8.536;2023-06-22T01:21:01;1.15;;;0.93;;
19173;SDS011;9719;49.322;8.536;2023-06-22T01:26:08;0.80;;;0.75;;
19173;SDS011;9719;49.322;8.536;2023-06-22T01:31:20;0.90;;;0.90;;
19173;SDS011;9719;49.322;8.536;2023-06-22T01:36:24;1.00;;;1.00;;
19173;SDS011;9719;49.322;8.536;2023-06-22T01:41:28;1.20;;;1.10;;
19173;SDS011;9719;49.322;8.536;2023-06-22T01:46:32;1.40;;;0.82;;
19173;SDS011;9719;49.322;8.536;2023-06-22T01:51:35;0.80;;;0.80;;
19173;SDS011;9719;49.322;8.536;2023-06-22T01:56:36;1.35;;;1.25;;
19173;SDS011;9719;49.322;8.536;2023-06-22T02:01:41;0.98;;;0.85;;
19173;SDS011;9719;49.322;8.536;2023-06-22T02:06:46;0.80;;;0.75;;
19173;SDS011;9719;49.322;8.536;2023-06-22T02:11:50;1.25;;;1.15;;
19173;SDS011;9719;49.322;8.536;2023-06-22T02:16:56;1.70;;;1.20;;
19173;SDS011;9719;49.322;8.536;2023-06-22T02:21:59;0.80;;;0.80;;
19173;SDS011;9719;49.322;8.536;2023-06-22T02:27:01;1.10;;;0.90;;
19173;SDS011;9719;49.322;8.536;2023-06-22T02:32:05;1.38;;;1.27;;
19173;SDS011;9719;49.322;8.536;2023-06-22T02:37:07;1.25;;;1.15;;
19173;SDS011;9719;49.322;8.536;2023-06-22T02:42:12;0.80;;;0.70;;
19173;SDS011;9719;49.322;8.536;2023-06-22T02:47:16;1.17;;;0.90;;
19173;SDS011;9719;49.322;8.536;2023-06-22T02:52:18;0.90;;;0.90;;
19173;SDS011;9719;49.322;8.536;2023-06-22T02:57:19;1.92;;;1.08;;
19173;SDS011;9719;49.322;8.536;2023-06-22T03:02:22;0.90;;;0.90;;
19173;SDS011;9719;49.322;8.536;2023-06-22T03:07:24;1.10;;;0.88;;
19173;SDS011;9719;49.322;8.536;2023-06-22T03:12:26;0.93;;;0.90;;
19173;SDS011;9719;49.322;8.536;2023-06-22T03:17:29;0.95;;;0.88;;
19173;SDS011;9719;49.322;8.536;2023-06-22T03:22:31;0.90;;;0.90;;
19173;SDS011;9719;49.322;8.536;2023-06-22T03:27:33;0.98;;;0.80;;
19173;SDS011;9719;49.322;8.536;2023-06-22T03:32:36;0.90;;;0.90;;
19173;SDS011;9719;49.322;8.536;2023-06-22T03:37:37;1.67;;;0.93;;
19173;SDS011;9719;49.322;8.536;2023-06-22T03:42:39;0.73;;;0.73;;
19173;SDS011;9719;49.322;8.536;2023-06-22T03:47:42;1.50;;;1.08;;
19173;SDS011;9719;49.322;8.536;2023-06-22T03:52:44;1.30;;;0.95;;
19173;SDS011;9719;49.322;8.536;2023-06-22T03:57:45;0.95;;;0.82;;
19173;SDS011;9719;49.322;8.536;2023-06-22T04:02:48;0.63;;;0.63;;
19173;SDS011;9719;49.322;8.536;2023-06-22T04:07:50;0.90;;;0.80;;
19173;SDS011;9719;49.322;8.536;2023-06-22T04:12:52;0.88;;;0.88;;
19173;SDS011;9719;49.322;8.536;2023-06-22T04:17:55;1.00;;;1.00;;
19173;SDS011;9719;49.322;8.536;2023-06-22T04:22:57;1.20;;;1.10;;
19173;SDS011;9719;49.322;8.536;2023-06-22T04:27:59;1.75;;;1.15;;
19173;SDS011;9719;49.322;8.536;2023-06-22T04:33:04;1.20;;;0.88;;
19173;SDS011;9719;49.322;8.536;2023-06-22T04:38:06;1.33;;;1.23;;
19173;SDS011;9719;49.322;8.536;2023-06-22T04:43:08;3.78;;;2.42;;
19173;SDS011;9719;49.322;8.536;2023-06-22T04:48:11;3.10;;;2.53;;
19173;SDS011;9719;49.322;8.536;2023-06-22T04:53:15;2.40;;;2.20;;
19173;SDS011;9719;49.322;8.536;2023-06-22T04:58:17;4.18;;;2.85;;
19173;SDS011;9719;49.322;8.536;2023-06-22T05:03:21;3.17;;;2.47;;
19173;SDS011;9719;49.322;8.536;2023-06-22T05:08:22;3.35;;;1.90;;
19173;SDS011;9719;49.322;8.536;2023-06-22T05:13:26;2.78;;;2.00;;
19173;SDS011;9719;49.322;8.536;2023-06-22T05:18:29;4.25;;;2.45;;
19173;SDS011;9719;49.322;8.536;2023-06-22T05:23:31;2.20;;;1.90;;
19173;SDS011;9719;49.322;8.536;2023-06-22T05:28:33;3.90;;;2.20;;
19173;SDS011;9719;49.322;8.536;2023-06-22T05:33:36;2.50;;;2.15;;
19173;SDS011;9719;49.322;8.536;2023-06-22T05:38:38;1.50;;;1.40;;
19173;SDS011;9719;49.322;8.536;2023-06-22T05:43:40;1.85;;;1.52;;
19173;SDS011;9719;49.322;8.536;2023-06-22T05:48:43;2.72;;;1.58;;
19173;SDS011;9719;49.322;8.536;2023-06-22T05:53:44;1.60;;;1.50;;
19173;SDS011;9719;49.322;8.536;2023-06-22T05:58:49;2.40;;;1.60;;
19173;SDS011;9719;49.322;8.536;2023-06-22T06:03:52;2.08;;;1.63;;
19173;SDS011;9719;49.322;8.536;2023-06-22T06:08:54;2.95;;;1.80;;
19173;SDS011;9719;49.322;8.536;2023-06-22T06:13:56;1.85;;;1.67;;
19173;SDS011;9719;49.322;8.536;2023-06-22T06:18:59;1.50;;;1.40;;
19173;SDS011;9719;49.322;8.536;2023-06-22T06:24:00;1.50;;;1.35;;
19173;SDS011;9719;49.322;8.536;2023-06-22T06:29:02;2.00;;;1.13;;
19173;SDS011;9719;49.322;8.536;2023-06-22T06:34:05;1.27;;;1.15;;
19173;SDS011;9719;49.322;8.536;2023-06-22T06:39:07;2.00;;;1.35;;
19173;SDS011;9719;49.322;8.536;2023-06-22T06:44:09;2.45;;;1.98;;
19173;SDS011;9719;49.322;8.536;2023-06-22T06:49:12;2.88;;;1.70;;
19173;SDS011;9719;49.322;8.536;2023-06-22T06:54:14;1.77;;;1.30;;
19173;SDS011;9719;49.322;8.536;2023-06-22T06:59:16;2.42;;;1.73;;
19173;SDS011;9719;49.322;8.536;2023-06-22T07:04:19;1.52;;;1.42;;
19173;SDS011;9719;49.322;8.536;2023-06-22T07:09:20;2.05;;;1.73;;
19173;SDS011;9719;49.322;8.536;2023-06-22T07:14:22;1.20;;;1.10;;
19173;SDS011;9719;49.322;8.536;2023-06-22T07:19:25;1.83;;;1.63;;
19173;SDS011;9719;49.322;8.536;2023-06-22T07:24:27;1.40;;;1.30;;
19173;SDS011;9719;49.322;8.536;2023-06-22T07:29:29;1.65;;;1.55;;
19173;SDS011;9719;49.322;8.536;2023-06-22T07:34:33;1.67;;;1.40;;
19173;SDS011;9719;49.322;8.536;2023-06-22T07:39:34;2.33;;;1.60;;
19173;SDS011;9719;49.322;8.536;2023-06-22T07:44:37;2.08;;;1.67;;
19173;SDS011;9719;49.322;8.536;2023-06-22T07:49:40;2.15;;;1.77;;
19173;SDS011;9719;49.322;8.536;2023-06-22T07:54:42;1.33;;;1.23;;
19173;SDS011;9719;49.322;8.536;2023-06-22T07:59:44;1.70;;;1.58;;
19173;SDS011;9719;49.322;8.536;2023-06-22T08:04:47;3.35;;;1.67;;
19173;SDS011;9719;49.322;8.536;2023-06-22T08:09:48;1.58;;;1.27;;
19173;SDS011;9719;49.322;8.536;2023-06-22T08:14:50;2.65;;;1.58;;
19173;SDS011;9719;49.322;8.536;2023-06-22T08:19:53;1.70;;;1.60;;
19173;SDS011;9719;49.322;8.536;2023-06-22T08:24:55;4.32;;;1.75;;
19173;SDS011;9719;49.322;8.536;2023-06-22T08:29:56;4.05;;;1.75;;
19173;SDS011;9719;49.322;8.536;2023-06-22T08:35:00;1.58;;;1.45;;
19173;SDS011;9719;49.322;8.536;2023-06-22T08:40:04;3.13;;;1.30;;
19173;SDS011;9719;49.322;8.536;2023-06-22T08:45:08;3.20;;;1.50;;
19173;SDS011;9719;49.322;8.536;2023-06-22T08:50:12;2.03;;;1.70;;
19173;SDS011;9719;49.322;8.536;2023-06-22T08:55:14;2.75;;;2.15;;
19173;SDS011;9719;49.322;8.536;2023-06-22T09:00:16;3.63;;;1.60;;
19173;SDS011;9719;49.322;8.536;2023-06-22T09:05:21;2.45;;;1.77;;
19173;SDS011;9719;49.322;8.536;2023-06-22T09:10:23;5.07;;;1.65;;
19173;SDS011;9719;49.322;8.536;2023-06-22T09:15:24;4.75;;;2.22;;
19173;SDS011;9719;49.322;8.536;2023-06-22T09:20:27;1.73;;;1.30;;
19173;SDS011;9719;49.322;8.536;2023-06-22T09:25:29;3.22;;;2.30;;
19173;SDS011;9719;49.322;8.536;2023-06-22T09:30:31;2.17;;;1.65;;
19173;SDS011;9719;49.322;8.536;2023-06-22T09:35:34;3.13;;;1.63;;
19173;SDS011;9719;49.322;8.536;2023-06-22T09:40:35;1.42;;;1.25;;
19173;SDS011;9719;49.322;8.536;2023-06-22T09:45:40;1.70;;;1.60;;
19173;SDS011;9719;49.322;8.536;2023-06-22T09:50:43;2.40;;;1.25;;
19173;SDS011;9719;49.322;8.536;2023-06-22T09:55:44;1.40;;;1.30;;
19173;SDS011;9719;49.322;8.536;2023-06-22T10:00:46;1.55;;;1.38;;
19173;SDS011;9719;49.322;8.536;2023-06-22T10:05:49;3.45;;;1.63;;
19173;SDS011;9719;49.322;8.536;2023-06-22T10:10:50;1.63;;;1.45;;
19173;SDS011;9719;49.322;8.536;2023-06-22T10:15:52;2.33;;;2.13;;
19173;SDS011;9719;49.322;8.536;2023-06-22T10:20:55;3.70;;;1.50;;
19173;SDS011;9719;49.322;8.536;2023-06-22T10:25:57;2.03;;;1.60;;
19173;SDS011;9719;49.322;8.536;2023-06-22T10:30:58;2.10;;;1.35;;
19173;SDS011;9719;49.322;8.536;2023-06-22T10:36:01;1.70;;;1.48;;
19173;SDS011;9719;49.322;8.536;2023-06-22T10:41:03;1.40;;;1.30;;
19173;SDS011;9719;49.322;8.536;2023-06-22T10:46:06;5.30;;;1.60;;
19173;SDS011;9719;49.322;8.536;2023-06-22T10:51:09;2.10;;;1.25;;
19173;SDS011;9719;49.322;8.536;2023-06-22T10:56:11;1.80;;;0.90;;
19173;SDS011;9719;49.322;8.536;2023-06-22T11:01:13;1.42;;;1.33;;
19173;SDS011;9719;49.322;8.536;2023-06-22T11:06:16;1.42;;;1.33;;
19173;SDS011;9719;49.322;8.536;2023-06-22T11:11:18;1.35;;;1.20;;
19173;SDS011;9719;49.322;8.536;2023-06-22T11:16:19;1.65;;;1.55;;
19173;SDS011;9719;49.322;8.536;2023-06-22T11:21:22;1.63;;;1.33;;
19173;SDS011;9719;49.322;8.536;2023-06-22T11:26:24;1.20;;;1.10;;
19173;SDS011;9719;49.322;8.536;2023-06-22T11:31:27;1.50;;;1.27;;
19173;SDS011;9719;49.322;8.536;2023-06-22T11:36:30;1.55;;;1.23;;
19173;SDS011;9719;49.322;8.536;2023-06-22T11:41:33;1.50;;;1.40;;
19173;SDS011;9719;49.322;8.536;2023-06-22T11:46:34;0.90;;;0.90;;
19173;SDS011;9719;49.322;8.536;2023-06-22T11:51:37;1.75;;;1.65;;
19173;SDS011;9719;49.322;8.536;2023-06-22T11:56:39;3.90;;;1.15;;
19173;SDS011;9719;49.322;8.536;2023-06-22T12:01:40;1.65;;;1.00;;
19173;SDS011;9719;49.322;8.536;2023-06-22T12:06:43;1.58;;;1.48;;
19173;SDS011;9719;49.322;8.536;2023-06-22T12:11:45;1.02;;;1.02;;
19173;SDS011;9719;49.322;8.536;2023-06-22T12:16:47;1.17;;;1.08;;
19173;SDS011;9719;49.322;8.536;2023-06-22T12:21:50;1.13;;;1.02;;
19173;SDS011;9719;49.322;8.536;2023-06-22T12:26:51;1.52;;;0.95;;
19173;SDS011;9719;49.322;8.536;2023-06-22T12:31:53;0.88;;;0.88;;
19173;SDS011;9719;49.322;8.536;2023-06-22T12:36:56;1.45;;;1.35;;
19173;SDS011;9719;49.322;8.536;2023-06-22T12:41:58;0.88;;;0.88;;
19173;SDS011;9719;49.322;8.536;2023-06-22T12:46:59;0.80;;;0.75;;
19173;SDS011;9719;49.322;8.536;2023-06-22T12:52:02;1.30;;;1.20;;
19173;SDS011;9719;49.322;8.536;2023-06-22T12:57:09;1.23;;;1.05;;
19173;SDS011;9719;49.322;8.536;2023-06-22T13:02:11;0.90;;;0.80;;
19173;SDS011;9719;49.322;8.536;2023-06-22T13:07:14;1.85;;;1.70;;
19173;SDS011;9719;49.322;8.536;2023-06-22T13:12:16;1.05;;;1.02;;
19173;SDS011;9719;49.322;8.536;2023-06-22T13:17:18;0.93;;;0.80;;
19173;SDS011;9719;49.322;8.536;2023-06-22T13:22:30;1.33;;;1.02;;
19173;SDS011;9719;49.322;8.536;2023-06-22T13:27:33;0.88;;;0.88;;
19173;SDS011;9719;49.322;8.536;2023-06-22T13:32:34;1.25;;;1.20;;
19173;SDS011;9719;49.322;8.536;2023-06-22T13:37:37;2.05;;;1.35;;
19173;SDS011;9719;49.322;8.536;2023-06-22T13:42:39;2.10;;;1.02;;
19173;SDS011;9719;49.322;8.536;2023-06-22T13:47:41;0.85;;;0.85;;
19173;SDS011;9719;49.322;8.536;2023-06-22T13:52:44;0.93;;;0.90;;
19173;SDS011;9719;49.322;8.536;2023-06-22T13:57:46;0.95;;;0.80;;
19173;SDS011;9719;49.322;8.536;2023-06-22T14:02:48;0.73;;;0.73;;
19173;SDS011;9719;49.322;8.536;2023-06-22T14:07:51;1.85;;;1.20;;
19173;SDS011;9719;49.322;8.536;2023-06-22T14:12:52;0.95;;;0.95;;
19173;SDS011;9719;49.322;8.536;2023-06-22T14:17:54;1.40;;;1.15;;
19173;SDS011;9719;49.322;8.536;2023-06-22T14:22:57;0.90;;;0.90;;
19173;SDS011;9719;49.322;8.536;2023-06-22T14:27:58;1.30;;;1.20;;
19173;SDS011;9719;49.322;8.536;2023-06-22T14:33:00;1.38;;;1.15;;
19173;SDS011;9719;49.322;8.536;2023-06-22T14:38:03;1.77;;;0.93;;
19173;SDS011;9719;49.322;8.536;2023-06-22T14:43:05;1.10;;;0.90;;
19173;SDS011;9719;49.322;8.536;2023-06-22T14:48:06;0.95;;;0.95;;
19173;SDS011;9719;49.322;8.536;2023-06-22T14:53:09;1.38;;;1.20;;
19173;SDS011;9719;49.322;8.536;2023-06-22T14:58:11;2.35;;;1.73;;
19173;SDS011;9719;49.322;8.536;2023-06-22T15:03:13;1.17;;;1.08;;
19173;SDS011;9719;49.322;8.536;2023-06-22T15:08:22;1.40;;;1.02;;
19173;SDS011;9719;49.322;8.536;2023-06-22T15:13:24;2.30;;;1.10;;
19173;SDS011;9719;49.322;8.536;2023-06-22T15:18:26;1.23;;;1.10;;
19173;SDS011;9719;49.322;8.536;2023-06-22T15:23:29;1.52;;;1.00;;
19173;SDS011;9719;49.322;8.536;2023-06-22T15:28:32;1.77;;;1.48;;
19173;SDS011;9719;49.322;8.536;2023-06-22T15:33:37;1.58;;;1.20;;
19173;SDS011;9719;49.322;8.536;2023-06-22T15:38:40;1.48;;;0.85;;
19173;SDS011;9719;49.322;8.536;2023-06-22T15:43:41;1.20;;;1.10;;
19173;SDS011;9719;49.322;8.536;2023-06-22T15:48:43;2.20;;;1.20;;
19173;SDS011;9719;49.322;8.536;2023-06-22T15:53:46;1.17;;;0.95;;
19173;SDS011;9719;49.322;8.536;2023-06-22T15:58:47;1.58;;;1.38;;
19173;SDS011;9719;49.322;8.536;2023-06-22T16:03:49;1.50;;;1.10;;
19173;SDS011;9719;49.322;8.536;2023-06-22T16:08:52;1.13;;;1.02;;
19173;SDS011;9719;49.322;8.536;2023-06-22T16:13:54;1.42;;;1.23;;
19173;SDS011;9719;49.322;8.536;2023-06-22T16:18:55;1.25;;;1.10;;
19173;SDS011;9719;49.322;8.536;2023-06-22T16:23:58;2.00;;;1.25;;
19173;SDS011;9719;49.322;8.536;2023-06-22T16:29:00;1.02;;;1.02;;
19173;SDS011;9719;49.322;8.536;2023-06-22T16:34:02;1.65;;;1.20;;
19173;SDS011;9719;49.322;8.536;2023-06-22T16:39:05;0.98;;;0.98;;
19173;SDS011;9719;49.322;8.536;2023-06-22T16:44:07;1.50;;;1.40;;
19173;SDS011;9719;49.322;8.536;2023-06-22T16:49:09;1.17;;;0.85;;
19173;SDS011;9719;49.322;8.536;2023-06-22T16:54:12;1.30;;;1.20;;
19173;SDS011;9719;49.322;8.536;2023-06-22T16:59:14;1.85;;;1.30;;
19173;SDS011;9719;49.322;8.536;2023-06-22T17:04:16;1.73;;;1.40;;
19173;SDS011;9719;49.322;8.536;2023-06-22T17:09:22;0.90;;;0.90;;
19173;SDS011;9719;49.322;8.536;2023-06-22T17:14:27;2.78;;;1.50;;
19173;SDS011;9719;49.322;8.536;2023-06-22T17:19:28;3.08;;;1.70;;
19173;SDS011;9719;49.322;8.536;2023-06-22T17:24:31;2.40;;;1.33;;
19173;SDS011;9719;49.322;8.536;2023-06-22T17:29:33;1.20;;;1.10;;
19173;SDS011;9719;49.322;8.536;2023-06-22T17:34:35;0.93;;;0.93;;
19173;SDS011;9719;49.322;8.536;2023-06-22T17:39:38;1.65;;;1.15;;
19173;SDS011;9719;49.322;8.536;2023-06-22T17:44:41;1.25;;;0.93;;
19173;SDS011;9719;49.322;8.536;2023-06-22T17:49:43;1.23;;;1.17;;
19173;SDS011;9719;49.322;8.536;2023-06-22T17:54:46;1.63;;;1.20;;
19173;SDS011;9719;49.322;8.536;2023-06-22T17:59:51;1.35;;;1.25;;
19173;SDS011;9719;49.322;8.536;2023-06-22T18:04:56;2.13;;;1.05;;
19173;SDS011;9719;49.322;8.536;2023-06-22T18:10:00;0.98;;;0.90;;
19173;SDS011;9719;49.322;8.536;2023-06-22T18:15:03;1.33;;;0.77;;
19173;SDS011;9719;49.322;8.536;2023-06-22T18:20:05;1.92;;;1.35;;
19173;SDS011;9719;49.322;8.536;2023-06-22T18:25:11;4.50;;;1.20;;
19173;SDS011;9719;49.322;8.536;2023-06-22T18:30:15;2.75;;;1.25;;
19173;SDS011;9719;49.322;8.536;2023-06-22T18:35:17;3.53;;;1.23;;
19173;SDS011;9719;49.322;8.536;2023-06-22T18:40:20;1.98;;;1.35;;
19173;SDS011;9719;49.322;8.536;2023-06-22T18:45:23;1.00;;;1.00;;
19173;SDS011;9719;49.322;8.536;2023-06-22T18:50:35;2.28;;;1.33;;
19173;SDS011;9719;49.322;8.536;2023-06-22T18:55:41;3.08;;;0.93;;
19173;SDS011;9719;49.322;8.536;2023-06-22T19:00:45;1.85;;;1.35;;
19173;SDS011;9719;49.322;8.536;2023-06-22T19:05:51;2.55;;;1.20;;
19173;SDS011;9719;49.322;8.536;2023-06-22T19:10:55;1.65;;;1.55;;
19173;SDS011;9719;49.322;8.536;2023-06-22T19:16:12;3.20;;;1.25;;
19173;SDS011;9719;49.322;8.536;2023-06-22T19:21:20;2.00;;;0.95;;
19173;SDS011;9719;49.322;8.536;2023-06-22T19:26:24;2.15;;;1.10;;
19173;SDS011;9719;49.322;8.536;2023-06-22T19:31:26;0.88;;;0.70;;
19173;SDS011;9719;49.322;8.536;2023-06-22T19:36:30;0.88;;;0.70;;
19173;SDS011;9719;49.322;8.536;2023-06-22T19:41:33;1.00;;;0.40;;
19173;SDS011;9719;49.322;8.536;2023-06-22T19:46:35;0.47;;;0.43;;
19173;SDS011;9719;49.322;8.536;2023-06-22T19:51:36;0.20;;;0.20;;
19173;SDS011;9719;49.322;8.536;2023-06-22T19:56:39;0.22;;;0.22;;
19173;SDS011;9719;49.322;8.536;2023-06-22T20:01:42;0.22;;;0.22;;
19173;SDS011;9719;49.322;8.536;2023-06-22T20:07:00;0.95;;;0.55;;
19173;SDS011;9719;49.322;8.536;2023-06-22T20:12:04;0.65;;;0.30;;
19173;SDS011;9719;49.322;8.536;2023-06-22T20:17:06;0.90;;;0.20;;
19173;SDS011;9719;49.322;8.536;2023-06-22T20:22:09;0.73;;;0.60;;
19173;SDS011;9719;49.322;8.536;2023-06-22T20:27:12;0.28;;;0.28;;
19173;SDS011;9719;49.322;8.536;2023-06-22T20:32:14;0.22;;;0.22;;
19173;SDS011;9719;49.322;8.536;2023-06-22T20:37:17;0.68;;;0.20;;
19173;SDS011;9719;49.322;8.536;2023-06-22T20:42:22;0.47;;;0.35;;
19173;SDS011;9719;49.322;8.536;2023-06-22T20:47:24;0.25;;;0.20;;
19173;SDS011;9719;49.322;8.536;2023-06-22T20:52:25;0.50;;;0.50;;
19173;SDS011;9719;49.322;8.536;2023-06-22T20:57:28;0.52;;;0.52;;
19173;SDS011;9719;49.322;8.536;2023-06-22T21:02:30;0.75;;;0.75;;
19173;SDS011;9719;49.322;8.536;2023-06-22T21:07:32;0.75;;;0.40;;
19173;SDS011;9719;49.322;8.536;2023-06-22T21:12:35;0.50;;;0.40;;
19173;SDS011;9719;49.322;8.536;2023-06-22T21:17:36;0.73;;;0.50;;
19173;SDS011;9719;49.322;8.536;2023-06-22T21:22:39;0.32;;;0.32;;
19173;SDS011;9719;49.322;8.536;2023-06-22T21:27:42;0.50;;;0.40;;
19173;SDS011;9719;49.322;8.536;2023-06-22T21:32:44;0.98;;;0.52;;
19173;SDS011;9719;49.322;8.536;2023-06-22T21:37:46;0.40;;;0.40;;
19173;SDS011;9719;49.322;8.536;2023-06-22T21:42:49;0.40;;;0.40;;
19173;SDS011;9719;49.322;8.536;2023-06-22T21:47:51;0.88;;;0.70;;
19173;SDS011;9719;49.322;8.536;2023-06-22T21:52:52;0.20;;;0.20;;
19173;SDS011;9719;49.322;8.536;2023-06-22T21:57:55;0.70;;;0.60;;
19173;SDS011;9719;49.322;8.536;2023-06-22T22:02:57;0.40;;;0.40;;
19173;SDS011;9719;49.322;8.536;2023-06-22T22:07:58;0.30;;;0.28;;
19173;SDS011;9719;49.322;8.536;2023-06-22T22:13:03;0.30;;;0.30;;
19173;SDS011;9719;49.322;8.536;2023-06-22T22:18:05;0.38;;;0.38;;
19173;SDS011;9719;49.322;8.536;2023-06-22T22:23:08;1.13;;;0.32;;
19173;SDS011;9719;49.322;8.536;2023-06-22T22:28:11;0.80;;;0.68;;
19173;SDS011;9719;49.322;8.536;2023-06-22T22:33:13;2.60;;;0.65;;
19173;SDS011;9719;49.322;8.536;2023-06-22T22:38:14;0.82;;;0.32;;
19173;SDS011;9719;49.322;8.536;2023-06-22T22:43:18;0.32;;;0.32;;
19173;SDS011;9719;49.322;8.536;2023-06-22T22:48:20;0.60;;;0.60;;
19173;SDS011;9719;49.322;8.536;2023-06-22T22:53:21;0.60;;;0.60;;
19173;SDS011;9719;49.322;8.536;2023-06-22T22:58:25;0.25;;;0.22;;
19173;SDS011;9719;49.322;8.536;2023-06-22T23:03:27;0.85;;;0.30;;
19173;SDS011;9719;49.322;8.536;2023-06-22T23:08:29;0.47;;;0.30;;
19173;SDS011;9719;49.322;8.536;2023-06-22T23:13:32;0.35;;;0.35;;
19173;SDS011;9719;49.322;8.536;2023-06-22T23:18:35;0.45;;;0.35;;
19173;SDS011;9719;49.322;8.536;2023-06-22T23:23:37;2.05;;;0.40;;
19173;SDS011;9719;49.322;8.536;2023-06-22T23:28:40;0.30;;;0.30;;
19173;SDS011;9719;49.322;8.536;2023-06-22T23:33:42;0.45;;;0.30;;
19173;SDS011;9719;49.322;8.536;2023-06-22T23:38:43;0.13;;;0.13;;
19173;SDS011;9719;49.322;8.536;2023-06-22T23:43:46;2.55;;;0.75;;
19173;SDS011;9719;49.322;8.536;2023-06-22T23:48:48;0.38;;;0.35;;
19173;SDS011;9719;49.322;8.536;2023-06-22T23:53:50;0.30;;;0.30;;
19173;SDS011;9719;49.322;8.536;2023-06-22T23:58:53;0.25;;;0.25;;
